createdAt,value
2018-09-30T00:01:58.813Z,97927.64
2018-09-30T00:04:26.436Z,97924.72
2018-09-30T00:06:54.057Z,97925.22
2018-09-30T00:09:25.894Z,97922.57
2018-09-30T00:11:53.521Z,97919.58
2018-09-30T00:14:21.140Z,97923.61
2018-09-30T00:16:48.869Z,97920.15
2018-09-30T00:19:16.524Z,97916.16
2018-09-30T00:21:44.153Z,97926.91
2018-09-30T00:24:17.130Z,97918.84
2018-09-30T00:27:06.103Z,97921.53
2018-09-30T00:29:33.777Z,97921.06
2018-09-30T00:32:01.405Z,97920.50
2018-09-30T00:34:30.030Z,97910.01
2018-09-30T00:36:58.569Z,97915.12
2018-09-30T00:39:26.677Z,97911.96
2018-09-30T00:41:54.650Z,97904.13
2018-09-30T00:44:22.508Z,97905.48
2018-09-30T00:46:50.290Z,97897.72
2018-09-30T00:49:17.923Z,97903.63
2018-09-30T00:51:45.545Z,97906.09
2018-09-30T00:54:13.888Z,97901.98
2018-09-30T00:56:41.857Z,97905.23
2018-09-30T00:59:09.663Z,97902.05
2018-09-30T01:01:37.310Z,97896.44
2018-09-30T01:04:04.953Z,97892.95
2018-09-30T01:06:32.665Z,97896.44
2018-09-30T01:09:00.293Z,97894.83
2018-09-30T01:11:27.906Z,97894.83
2018-09-30T01:13:55.524Z,97893.49
2018-09-30T01:16:23.142Z,97892.14
2018-09-30T01:18:50.800Z,97891.61
2018-09-30T01:21:18.465Z,97892.72
2018-09-30T01:23:46.085Z,97880.05
2018-09-30T01:26:13.717Z,97875.31
2018-09-30T01:28:41.339Z,97871.75
2018-09-30T01:31:08.955Z,97871.52
2018-09-30T01:33:36.668Z,97871.28
2018-09-30T01:36:04.288Z,97868.33
2018-09-30T01:38:31.955Z,97869.94
2018-09-30T01:40:59.582Z,97876.40
2018-09-30T01:43:27.209Z,97870.55
2018-09-30T01:45:54.844Z,97870.29
2018-09-30T01:48:22.488Z,97870.55
2018-09-30T01:50:50.135Z,97872.13
2018-09-30T01:53:17.771Z,97874.32
2018-09-30T01:55:45.395Z,97870.55
2018-09-30T01:58:13.016Z,97869.75
2018-09-30T02:00:40.672Z,97867.60
2018-09-30T02:03:08.299Z,97863.34
2018-09-30T02:05:35.922Z,97865.22
2018-09-30T02:08:03.538Z,97864.67
2018-09-30T02:10:31.159Z,97864.98
2018-09-30T02:12:58.802Z,97866.09
2018-09-30T02:15:26.416Z,97863.95
2018-09-30T02:17:54.078Z,97859.91
2018-09-30T02:20:21.708Z,97861.80
2018-09-30T02:22:49.343Z,97859.41
2018-09-30T02:25:16.965Z,97861.33
2018-09-30T02:27:44.595Z,97862.91
2018-09-30T02:30:12.225Z,97860.52
2018-09-30T02:32:39.845Z,97861.33
2018-09-30T02:35:07.480Z,97858.64
2018-09-30T02:37:35.114Z,97854.34
2018-09-30T02:40:02.750Z,97855.38
2018-09-30T02:42:30.381Z,97848.44
2018-09-30T02:44:58.018Z,97840.14
2018-09-30T02:47:25.652Z,97837.45
2018-09-30T02:49:53.380Z,97834.77
2018-09-30T02:52:20.991Z,97832.84
2018-09-30T02:54:48.630Z,97834.20
2018-09-30T02:57:16.253Z,97832.08
2018-09-30T02:59:43.876Z,97827.78
2018-09-30T03:02:11.609Z,97811.72
2018-09-30T03:04:39.267Z,97831.58
2018-09-30T03:07:12.457Z,97831.81
2018-09-30T03:09:42.686Z,97823.82
2018-09-30T03:12:10.342Z,97823.82
2018-09-30T03:14:38.022Z,97821.94
2018-09-30T03:17:05.654Z,97822.78
2018-09-30T03:19:33.283Z,97819.25
2018-09-30T03:22:00.910Z,97818.21
2018-09-30T03:24:28.537Z,97815.77
2018-09-30T03:26:56.210Z,97813.37
2018-09-30T03:29:23.869Z,97806.66
2018-09-30T03:31:51.502Z,97804.28
2018-09-30T03:34:19.121Z,97796.30
2018-09-30T03:36:46.740Z,97795.42
2018-09-30T03:39:14.371Z,97799.22
2018-09-30T03:41:41.991Z,97795.98
2018-09-30T03:44:09.625Z,97791.16
2018-09-30T03:46:37.264Z,97791.16
2018-09-30T03:49:04.937Z,97794.08
2018-09-30T03:51:32.574Z,97788.23
2018-09-30T03:54:00.235Z,97789.58
2018-09-30T03:56:27.878Z,97785.05
2018-09-30T03:58:55.509Z,97787.20
2018-09-30T04:01:23.132Z,97789.62
2018-09-30T04:03:50.757Z,97789.88
2018-09-30T04:06:18.409Z,97789.88
2018-09-30T04:08:46.035Z,97789.38
2018-09-30T04:11:13.658Z,97788.27
2018-09-30T04:13:41.289Z,97785.89
2018-09-30T04:16:08.895Z,97784.55
2018-09-30T04:18:36.596Z,97780.52
2018-09-30T04:21:04.221Z,97776.49
2018-09-30T04:23:31.876Z,97772.77
2018-09-30T04:25:59.606Z,97767.09
2018-09-30T04:28:27.299Z,97760.68
2018-09-30T04:30:54.949Z,97757.69
2018-09-30T04:33:22.619Z,97763.94
2018-09-30T04:35:50.205Z,97767.16
2018-09-30T04:38:17.913Z,97756.41
2018-09-30T04:40:45.537Z,97760.45
2018-09-30T04:43:13.172Z,97758.88
2018-09-30T04:45:40.801Z,97754.04
2018-09-30T04:48:08.434Z,97753.23
2018-09-30T04:50:36.058Z,97758.61
2018-09-30T04:53:03.693Z,97754.91
2018-09-30T04:55:31.373Z,97752.77
2018-09-30T04:57:59.005Z,97751.42
2018-09-30T05:00:26.621Z,97748.73
2018-09-30T05:02:54.255Z,97752.53
2018-09-30T05:05:21.889Z,97748.23
2018-09-30T05:07:49.509Z,97751.96
2018-09-30T05:10:17.137Z,97752.27
2018-09-30T05:12:44.785Z,97746.90
2018-09-30T05:15:12.430Z,97749.11
2018-09-30T05:17:40.198Z,97751.73
2018-09-30T05:20:07.820Z,97749.05
2018-09-30T05:22:35.619Z,97749.66
2018-09-30T05:25:03.258Z,97749.34
2018-09-30T05:27:30.900Z,97750.45
2018-09-30T05:29:58.556Z,97756.91
2018-09-30T05:32:26.191Z,97743.48
2018-09-30T05:34:53.817Z,97744.82
2018-09-30T05:37:21.444Z,97745.86
2018-09-30T05:39:49.074Z,97741.91
2018-09-30T05:42:16.704Z,97744.05
2018-09-30T05:44:44.332Z,97743.55
2018-09-30T05:47:11.967Z,97741.10
2018-09-30T05:49:39.581Z,97740.33
2018-09-30T05:52:07.225Z,97741.91
2018-09-30T05:54:34.861Z,97743.78
2018-09-30T05:57:02.489Z,97736.30
2018-09-30T05:59:30.100Z,97744.09
2018-09-30T06:01:57.725Z,97744.09
2018-09-30T06:04:25.342Z,97746.00
2018-09-30T06:06:52.970Z,97749.23
2018-09-30T06:09:20.670Z,97747.34
2018-09-30T06:11:48.283Z,97738.48
2018-09-30T06:14:16.498Z,97748.99
2018-09-30T06:16:44.176Z,97751.68
2018-09-30T06:19:11.825Z,97743.63
2018-09-30T06:21:40.435Z,97743.86
2018-09-30T06:24:08.176Z,97740.67
2018-09-30T06:26:35.753Z,97740.67
2018-09-30T06:29:03.417Z,97742.59
2018-09-30T06:31:31.082Z,97743.93
2018-09-30T06:33:58.718Z,97734.53
2018-09-30T06:36:26.375Z,97726.20
2018-09-30T06:38:54.021Z,97730.73
2018-09-30T06:41:21.640Z,97724.02
2018-09-30T06:43:49.270Z,97733.34
2018-09-30T06:46:16.946Z,97734.20
2018-09-30T06:48:44.564Z,97733.58
2018-09-30T06:51:12.184Z,97733.12
2018-09-30T06:53:39.856Z,97725.74
2018-09-30T06:56:07.541Z,97720.30
2018-09-30T06:58:35.153Z,97726.39
2018-09-30T07:01:02.996Z,97720.45
2018-09-30T07:03:30.649Z,97725.52
2018-09-30T07:05:58.299Z,97733.03
2018-09-30T07:08:25.926Z,97732.91
2018-09-30T07:10:53.602Z,97733.38
2018-09-30T07:13:21.216Z,97734.67
2018-09-30T07:15:48.848Z,97734.98
2018-09-30T07:18:16.667Z,97738.31
2018-09-30T07:20:44.320Z,97739.89
2018-09-30T07:23:11.969Z,97734.10
2018-09-30T07:25:39.603Z,97730.98
2018-09-30T07:28:07.513Z,97734.47
2018-09-30T07:30:35.276Z,97734.63
2018-09-30T07:33:02.928Z,97736.23
2018-09-30T07:35:30.552Z,97736.77
2018-09-30T07:37:58.292Z,97737.31
2018-09-30T07:40:25.938Z,97731.47
2018-09-30T07:42:53.557Z,97729.20
2018-09-30T07:45:21.186Z,97732.91
2018-09-30T07:47:48.823Z,97722.16
2018-09-30T07:50:16.457Z,97722.27
2018-09-30T07:52:44.211Z,97724.64
2018-09-30T07:55:11.860Z,97723.25
2018-09-30T07:57:39.494Z,97719.44
2018-09-30T08:00:07.425Z,97713.98
2018-09-30T08:02:35.049Z,97718.33
2018-09-30T08:05:02.677Z,97714.70
2018-09-30T08:07:30.312Z,97714.70
2018-09-30T08:09:57.959Z,97714.88
2018-09-30T08:12:25.844Z,97714.88
2018-09-30T08:14:53.561Z,97709.73
2018-09-30T08:17:21.297Z,97711.56
2018-09-30T08:19:49.122Z,97715.61
2018-09-30T08:23:20.166Z,97717.49
2018-09-30T08:25:47.849Z,97710.77
2018-09-30T08:28:15.502Z,97705.08
2018-09-30T08:30:43.221Z,97709.91
2018-09-30T08:33:10.804Z,97706.11
2018-09-30T08:35:38.437Z,97704.94
2018-09-30T08:38:11.361Z,97710.31
2018-09-30T08:40:44.374Z,97710.55
2018-09-30T08:43:12.009Z,97703.51
2018-09-30T08:45:39.892Z,97704.31
2018-09-30T08:48:07.526Z,97707.23
2018-09-30T08:50:35.162Z,97704.55
2018-09-30T08:53:02.887Z,97691.66
2018-09-30T08:55:30.565Z,97701.00
2018-09-30T08:57:58.188Z,97698.84
2018-09-30T09:00:25.807Z,97693.38
2018-09-30T09:02:53.463Z,97685.57
2018-09-30T09:05:21.117Z,97686.43
2018-09-30T09:07:48.758Z,97692.84
2018-09-30T09:10:16.429Z,97691.72
2018-09-30T09:12:47.065Z,97701.45
2018-09-30T09:15:14.689Z,97698.77
2018-09-30T09:17:42.313Z,97695.22
2018-09-30T09:20:09.945Z,97687.14
2018-09-30T09:22:37.575Z,97682.31
2018-09-30T09:25:05.521Z,97677.50
2018-09-30T09:27:33.150Z,97680.65
2018-09-30T09:30:00.781Z,97673.70
2018-09-30T09:32:28.464Z,97668.55
2018-09-30T09:34:56.106Z,97665.54
2018-09-30T09:37:23.753Z,97657.23
2018-09-30T09:39:51.405Z,97654.63
2018-09-30T09:42:19.029Z,97650.83
2018-09-30T09:44:46.652Z,97653.52
2018-09-30T09:47:14.294Z,97648.05
2018-09-30T09:49:41.923Z,97648.31
2018-09-30T09:52:09.544Z,97644.10
2018-09-30T09:54:37.185Z,97643.07
2018-09-30T09:57:04.801Z,97645.77
2018-09-30T09:59:32.467Z,97644.42
2018-09-30T10:02:00.121Z,97637.69
2018-09-30T10:04:27.766Z,97626.45
2018-09-30T10:06:55.937Z,97628.05
2018-09-30T10:09:23.574Z,97619.98
2018-09-30T10:11:51.197Z,97621.64
2018-09-30T10:14:18.817Z,97621.06
2018-09-30T10:16:46.488Z,97621.86
2018-09-30T10:19:14.109Z,97615.69
2018-09-30T10:21:41.742Z,97616.26
2018-09-30T10:24:09.367Z,97531.64
2018-09-30T10:26:37.022Z,97606.04
2018-09-30T10:29:04.654Z,97602.89
2018-09-30T10:31:32.264Z,97599.23
2018-09-30T10:33:59.897Z,97598.77
2018-09-30T10:36:27.516Z,97591.95
2018-09-30T10:38:55.264Z,97591.16
2018-09-30T10:41:22.862Z,97582.38
2018-09-30T10:43:50.529Z,97579.14
2018-09-30T10:46:18.177Z,97574.30
2018-09-30T10:48:45.881Z,97570.04
2018-09-30T10:51:13.497Z,97568.70
2018-09-30T10:53:41.130Z,97568.86
2018-09-30T10:56:08.968Z,97557.94
2018-09-30T10:58:36.618Z,97559.77
2018-09-30T11:01:04.249Z,97553.49
2018-09-30T11:03:31.922Z,97544.66
2018-09-30T11:05:59.556Z,97546.06
2018-09-30T11:08:27.179Z,97537.44
2018-09-30T11:10:54.797Z,97534.20
2018-09-30T11:13:22.417Z,97526.59
2018-09-30T11:15:50.107Z,97518.84
2018-09-30T11:18:17.736Z,97512.05
2018-09-30T11:20:45.345Z,97505.55
2018-09-30T11:23:12.958Z,97506.41
2018-09-30T11:25:40.586Z,97499.86
2018-09-30T11:28:08.240Z,97496.62
2018-09-30T11:30:35.861Z,97492.33
2018-09-30T11:33:03.518Z,97484.52
2018-09-30T11:35:31.169Z,97489.89
2018-09-30T11:37:58.806Z,97483.39
2018-09-30T11:40:26.447Z,97473.27
2018-09-30T11:42:54.141Z,97470.80
2018-09-30T11:45:21.779Z,97467.03
2018-09-30T11:47:49.402Z,97450.31
2018-09-30T11:50:17.119Z,97455.46
2018-09-30T11:52:44.814Z,97450.88
2018-09-30T11:55:12.424Z,97426.31
2018-09-30T11:57:40.045Z,97441.92
2018-09-30T12:00:07.701Z,97437.81
2018-09-30T12:02:35.339Z,97437.81
2018-09-30T12:05:03.198Z,97429.27
2018-09-30T12:07:30.825Z,97434.65
2018-09-30T12:09:58.436Z,97431.09
2018-09-30T12:12:26.053Z,97426.73
2018-09-30T12:14:53.681Z,97429.42
2018-09-30T12:17:21.326Z,97416.20
2018-09-30T12:19:48.957Z,97414.05
2018-09-30T12:22:16.580Z,97419.69
2018-09-30T12:24:44.200Z,97417.00
2018-09-30T12:27:11.828Z,97408.13
2018-09-30T12:29:39.449Z,97407.42
2018-09-30T12:32:07.101Z,97398.48
2018-09-30T12:34:34.752Z,97402.64
2018-09-30T12:37:02.375Z,97392.91
2018-09-30T12:39:30.001Z,97397.27
2018-09-30T12:41:57.623Z,97390.22
2018-09-30T12:44:25.251Z,97391.81
2018-09-30T12:46:52.857Z,97384.29
2018-09-30T12:49:20.485Z,97385.09
2018-09-30T12:51:48.132Z,97380.25
2018-09-30T12:54:15.758Z,97381.38
2018-09-30T12:56:43.504Z,97378.36
2018-09-30T12:59:11.128Z,97377.02
2018-09-30T13:01:38.745Z,97368.69
2018-09-30T13:04:06.392Z,97359.97
2018-09-30T13:06:34.008Z,97362.22
2018-09-30T13:09:01.630Z,97357.86
2018-09-30T13:11:29.294Z,97352.48
2018-09-30T13:13:56.912Z,97351.03
2018-09-30T13:16:24.538Z,97341.84
2018-09-30T13:18:52.195Z,97347.47
2018-09-30T13:21:19.825Z,97339.14
2018-09-30T13:23:47.461Z,97336.23
2018-09-30T13:26:15.310Z,97332.67
2018-09-30T13:28:42.942Z,97325.69
2018-09-30T13:31:10.579Z,97326.71
2018-09-30T13:33:38.306Z,97321.58
2018-09-30T13:36:05.918Z,97323.95
2018-09-30T13:38:33.631Z,97317.30
2018-09-30T13:41:01.441Z,97315.40
2018-09-30T13:43:28.962Z,97309.47
2018-09-30T13:45:56.587Z,97307.55
2018-09-30T13:48:24.224Z,97300.17
2018-09-30T13:50:51.845Z,97293.22
2018-09-30T13:53:19.489Z,97291.30
2018-09-30T13:55:47.162Z,97294.89
2018-09-30T13:58:14.787Z,97286.49
2018-09-30T14:00:42.423Z,97276.85
2018-09-30T14:03:10.054Z,97284.25
2018-09-30T14:05:37.715Z,97278.86
2018-09-30T14:08:05.355Z,97279.77
2018-09-30T14:10:32.981Z,97283.91
2018-09-30T14:13:00.642Z,97278.97
2018-09-30T14:15:28.278Z,97272.02
2018-09-30T14:17:55.938Z,97267.19
2018-09-30T14:20:23.562Z,97263.95
2018-09-30T14:22:51.238Z,97263.63
2018-09-30T14:25:18.874Z,97255.88
2018-09-30T14:27:46.516Z,97255.33
2018-09-30T14:30:14.180Z,97256.75
2018-09-30T14:32:41.810Z,97249.59
2018-09-30T14:35:09.441Z,97253.98
2018-09-30T14:37:37.313Z,97247.48
2018-09-30T14:40:04.975Z,97247.48
2018-09-30T14:42:32.597Z,97240.97
2018-09-30T14:45:00.216Z,97234.02
2018-09-30T14:47:27.865Z,97235.03
2018-09-30T14:49:55.511Z,97232.09
2018-09-30T14:52:23.273Z,97235.26
2018-09-30T14:54:50.914Z,97235.59
2018-09-30T14:57:18.566Z,97234.94
2018-09-30T14:59:46.268Z,97232.67
2018-09-30T15:02:13.852Z,97232.02
2018-09-30T15:04:41.477Z,97229.55
2018-09-30T15:07:09.118Z,97231.55
2018-09-30T15:09:36.745Z,97226.71
2018-09-30T15:12:04.365Z,97225.15
2018-09-30T15:14:31.984Z,97227.73
2018-09-30T15:16:59.626Z,97228.16
2018-09-30T15:19:27.266Z,97219.22
2018-09-30T15:21:54.901Z,97215.28
2018-09-30T15:24:22.554Z,97208.63
2018-09-30T15:26:50.470Z,97211.33
2018-09-30T15:29:18.102Z,97216.05
2018-09-30T15:31:45.713Z,97212.59
2018-09-30T15:34:13.350Z,97211.25
2018-09-30T15:36:41.030Z,97209.44
2018-09-30T15:39:09.322Z,97205.72
2018-09-30T15:41:36.966Z,97206.27
2018-09-30T15:44:04.595Z,97209.77
2018-09-30T15:46:32.240Z,97202.02
2018-09-30T15:48:59.964Z,97202.67
2018-09-30T15:51:27.591Z,97200.20
2018-09-30T15:53:55.254Z,97200.78
2018-09-30T15:56:22.880Z,97198.16
2018-09-30T15:58:50.505Z,97198.63
2018-09-30T16:01:18.141Z,97197.14
2018-09-30T16:03:45.753Z,97196.37
2018-09-30T16:06:13.380Z,97196.81
2018-09-30T16:08:41.001Z,97203.10
2018-09-30T16:11:08.621Z,97193.21
2018-09-30T16:13:36.245Z,97191.32
2018-09-30T16:16:03.889Z,97194.56
2018-09-30T16:18:31.535Z,97192.66
2018-09-30T16:20:59.156Z,97188.70
2018-09-30T16:23:26.776Z,97196.45
2018-09-30T16:25:54.406Z,97194.89
2018-09-30T16:28:22.147Z,97196.78
2018-09-30T16:30:49.735Z,97197.35
2018-09-30T16:33:17.385Z,97199.47
2018-09-30T16:35:45.008Z,97197.10
2018-09-30T16:38:12.635Z,97195.76
2018-09-30T16:40:40.257Z,97197.10
2018-09-30T16:43:07.953Z,97197.75
2018-09-30T16:45:35.597Z,97202.48
2018-09-30T16:48:03.220Z,97201.24
2018-09-30T16:50:30.929Z,97204.48
2018-09-30T16:52:58.541Z,97199.75
2018-09-30T16:55:26.159Z,97200.88
2018-09-30T16:57:53.778Z,97199.75
2018-09-30T17:00:21.402Z,97202.69
2018-09-30T17:02:49.079Z,97204.59
2018-09-30T17:05:16.779Z,97202.44
2018-09-30T17:07:44.721Z,97206.80
2018-09-30T17:10:12.365Z,97201.89
2018-09-30T17:12:39.985Z,97201.20
2018-09-30T17:15:07.777Z,97209.49
2018-09-30T17:17:35.402Z,97205.02
2018-09-30T17:20:03.058Z,97202.00
2018-09-30T17:22:30.790Z,97203.56
2018-09-30T17:24:58.454Z,97198.98
2018-09-30T17:27:26.081Z,97199.75
2018-09-30T17:29:53.798Z,97199.31
2018-09-30T17:32:21.418Z,97201.34
2018-09-30T17:34:49.106Z,97200.00
2018-09-30T17:37:16.722Z,97198.98
2018-09-30T17:39:44.336Z,97197.86
2018-09-30T17:42:11.986Z,97199.20
2018-09-30T17:44:39.697Z,97193.93
2018-09-30T17:47:07.364Z,97191.46
2018-09-30T17:49:34.984Z,97183.39
2018-09-30T17:52:02.625Z,97188.22
2018-09-30T17:54:30.288Z,97185.86
2018-09-30T17:56:58.490Z,97186.08
2018-09-30T17:59:26.498Z,97179.13
2018-09-30T18:01:54.141Z,97179.91
2018-09-30T18:04:21.874Z,97179.91
2018-09-30T18:06:49.593Z,97179.69
2018-09-30T18:09:17.226Z,97173.50
2018-09-30T18:11:44.854Z,97175.20
2018-09-30T18:14:12.477Z,97176.88
2018-09-30T18:16:40.110Z,97176.55
2018-09-30T18:19:07.737Z,97171.17
2018-09-30T18:21:35.368Z,97174.63
2018-09-30T18:24:03.014Z,97177.97
2018-09-30T18:26:30.638Z,97170.05
2018-09-30T18:28:58.254Z,97170.92
2018-09-30T18:31:25.878Z,97168.55
2018-09-30T18:33:53.599Z,97174.63
2018-09-30T18:36:21.211Z,97171.25
2018-09-30T18:38:48.812Z,97168.66
2018-09-30T18:41:16.461Z,97170.23
2018-09-30T18:43:44.067Z,97173.02
2018-09-30T18:46:11.685Z,97169.53
2018-09-30T18:48:39.318Z,97164.80
2018-09-30T18:51:07.032Z,97163.50
2018-09-30T18:53:34.670Z,97157.44
2018-09-30T18:56:02.333Z,97155.64
2018-09-30T18:58:29.974Z,97160.77
2018-09-30T19:00:57.616Z,97160.23
2018-09-30T19:03:25.250Z,97165.17
2018-09-30T19:05:52.872Z,97166.99
2018-09-30T19:08:20.498Z,97165.54
2018-09-30T19:10:48.123Z,97160.96
2018-09-30T19:13:15.748Z,97153.77
2018-09-30T19:15:43.459Z,97148.48
2018-09-30T19:18:11.050Z,97146.78
2018-09-30T19:20:38.687Z,97147.80
2018-09-30T19:23:06.342Z,97151.94
2018-09-30T19:25:33.958Z,97145.91
2018-09-30T19:28:01.590Z,97143.22
2018-09-30T19:30:29.209Z,97138.28
2018-09-30T19:32:56.843Z,97141.77
2018-09-30T19:35:24.464Z,97136.82
2018-09-30T19:37:52.138Z,97135.23
2018-09-30T19:40:20.072Z,97129.77
2018-09-30T19:42:47.690Z,97139.19
2018-09-30T19:45:15.317Z,97125.27
2018-09-30T19:47:42.974Z,97124.39
2018-09-30T19:50:10.947Z,97125.27
2018-09-30T19:52:38.565Z,97125.48
2018-09-30T19:55:06.177Z,97125.81
2018-09-30T19:57:33.800Z,97124.72
2018-09-30T20:00:01.450Z,97121.56
2018-09-30T20:02:29.086Z,97113.81
2018-09-30T20:04:56.722Z,97107.31
2018-09-30T20:07:24.376Z,97105.31
2018-09-30T20:09:51.998Z,97107.31
2018-09-30T20:12:19.645Z,97099.83
2018-09-30T20:14:47.361Z,97095.79
2018-09-30T20:17:14.981Z,97100.05
2018-09-30T20:19:42.626Z,97102.41
2018-09-30T20:22:11.444Z,97099.50
2018-09-30T20:24:39.201Z,97098.38
2018-09-30T20:27:06.832Z,97101.50
2018-09-30T20:29:34.944Z,97095.54
2018-09-30T20:32:02.569Z,97092.08
2018-09-30T20:34:30.209Z,97089.72
2018-09-30T20:36:57.946Z,97089.39
2018-09-30T20:39:25.566Z,97091.06
2018-09-30T20:41:53.197Z,97093.10
2018-09-30T20:44:20.844Z,97085.69
2018-09-30T20:46:48.476Z,97092.08
2018-09-30T20:49:16.134Z,97084.09
2018-09-30T20:51:43.762Z,97094.08
2018-09-30T20:54:11.414Z,97091.14
2018-09-30T20:56:39.060Z,97089.47
2018-09-30T20:59:06.702Z,97086.02
2018-09-30T21:01:34.353Z,97084.42
2018-09-30T21:04:02.003Z,97083.18
2018-09-30T21:06:32.947Z,97082.86
2018-09-30T21:09:00.578Z,97080.39
2018-09-30T21:11:28.261Z,97081.19
2018-09-30T21:13:55.899Z,97084.42
2018-09-30T21:16:23.596Z,97087.11
2018-09-30T21:18:51.254Z,97083.41
2018-09-30T21:21:18.903Z,97069.19
2018-09-30T21:23:46.529Z,97075.34
2018-09-30T21:26:14.160Z,97073.23
2018-09-30T21:28:41.795Z,97064.03
2018-09-30T21:31:09.432Z,97070.75
2018-09-30T21:33:37.088Z,97067.05
2018-09-30T21:36:04.720Z,97061.45
2018-09-30T21:38:32.350Z,97054.48
2018-09-30T21:41:00.015Z,97051.58
2018-09-30T21:43:27.631Z,97045.54
2018-09-30T21:45:55.282Z,97046.88
2018-09-30T21:48:22.919Z,97046.56
2018-09-30T21:50:50.587Z,97038.81
2018-09-30T21:53:18.520Z,97038.59
2018-09-30T21:55:46.141Z,97038.59
2018-09-30T21:58:13.777Z,97043.18
2018-09-30T22:00:43.657Z,97038.92
2018-09-30T22:03:14.292Z,97035.33
2018-09-30T22:05:41.931Z,97036.78
2018-09-30T22:08:10.609Z,97037.11
2018-09-30T22:10:39.329Z,97030.94
2018-09-30T22:13:06.968Z,97027.38
2018-09-30T22:15:34.622Z,97024.14
2018-09-30T22:18:02.290Z,97022.22
2018-09-30T22:20:29.923Z,97018.30
2018-09-30T22:22:57.569Z,97021.53
2018-09-30T22:25:25.234Z,97005.40
2018-09-30T22:27:52.869Z,97005.40
2018-09-30T22:30:20.502Z,97004.16
2018-09-30T22:32:48.121Z,97005.51
2018-09-30T22:35:15.740Z,97002.81
2018-09-30T22:37:43.390Z,97003.37
2018-09-30T22:40:11.019Z,96995.08
2018-09-30T22:42:38.828Z,96996.31
2018-09-30T22:45:06.809Z,96998.78
2018-09-30T22:47:34.897Z,96999.58
2018-09-30T22:50:02.515Z,97003.14
2018-09-30T22:52:30.141Z,96997.05
2018-09-30T22:54:57.836Z,97000.23
2018-09-30T22:57:25.458Z,96994.36
2018-09-30T22:59:53.106Z,96996.42
2018-09-30T23:02:20.726Z,96996.50
2018-09-30T23:04:48.394Z,96998.09
2018-09-30T23:07:16.018Z,97003.48
2018-09-30T23:09:43.771Z,97004.02
2018-09-30T23:12:11.425Z,97001.88
2018-09-30T23:14:39.065Z,97001.88
2018-09-30T23:17:07.342Z,96999.45
2018-09-30T23:19:34.997Z,97003.00
2018-09-30T23:22:02.634Z,96994.47
2018-09-30T23:24:30.276Z,96992.91
2018-09-30T23:26:57.922Z,96997.37
2018-09-30T23:29:25.553Z,96993.92
2018-09-30T23:31:53.185Z,96993.23
2018-09-30T23:34:20.939Z,96995.02
2018-09-30T23:36:48.580Z,96987.86
2018-09-30T23:39:16.205Z,96992.98
2018-09-30T23:41:43.836Z,96994.80
2018-09-30T23:44:11.463Z,96986.52
2018-09-30T23:46:39.093Z,96992.44
2018-09-30T23:49:06.976Z,96992.66
2018-09-30T23:51:34.919Z,96984.59
2018-09-30T23:54:02.540Z,96978.78
2018-09-30T23:56:30.173Z,96980.13
2018-09-30T23:58:57.795Z,96985.50
